Time;durP1;ratioP1;P1;durP2;ratioP2;P2;SDS_P1;SDS_P2;PMS_P1;PMS_P2;Temp;Humidity;BMP_temperature;BMP_pressure;BME280_temperature;BME280_humidity;BME280_pressure;Samples;Min_cycle;Max_cycle;Signal;HPM_P1;HPM_P2
2021/04/01 00:01:04;;;;;;;5.15;1.23;;;14.50;41.80;;;;;;2364908;53;21052;-65
2021/04/01 00:03:30;;;;;;;4.45;1.55;;;14.50;41.90;;;;;;2363812;53;20925;-64
2021/04/01 00:05:57;;;;;;;5.80;1.70;;;14.50;42.00;;;;;;2615525;52;21264;-64
2021/04/01 00:08:23;;;;;;;3.15;1.50;;;14.50;42.00;;;;;;2599938;52;21578;-63
2021/04/01 00:10:51;;;;;;;3.25;1.42;;;14.50;42.00;;;;;;2597234;52;20950;-62
2021/04/01 00:13:17;;;;;;;3.05;1.08;;;14.40;42.00;;;;;;2361444;53;21781;-65
2021/04/01 00:15:44;;;;;;;2.30;1.10;;;14.40;42.10;;;;;;2364890;53;21030;-63
2021/04/01 00:18:11;;;;;;;3.70;1.50;;;14.40;42.20;;;;;;2356563;53;21017;-64
2021/04/01 00:20:37;;;;;;;4.47;1.50;;;14.30;42.20;;;;;;2357023;53;21028;-63
2021/04/01 00:23:04;;;;;;;3.37;1.33;;;14.30;42.20;;;;;;2352901;53;21045;-62
2021/04/01 00:25:30;;;;;;;2.85;1.30;;;14.30;42.30;;;;;;2360643;53;20886;-63
2021/04/01 00:27:57;;;;;;;6.55;1.70;;;14.30;42.30;;;;;;2364554;53;20956;-64
2021/04/01 00:30:23;;;;;;;3.08;1.20;;;14.20;42.20;;;;;;2348341;54;20933;-66
2021/04/01 00:32:50;;;;;;;2.95;1.17;;;14.10;42.20;;;;;;2364390;53;20878;-63
2021/04/01 00:35:16;;;;;;;4.87;1.35;;;14.10;42.40;;;;;;2347780;53;21022;-64
2021/04/01 00:37:42;;;;;;;4.70;1.48;;;14.10;42.50;;;;;;2615724;52;20913;-64
2021/04/01 00:40:10;;;;;;;3.95;1.17;;;14.10;42.60;;;;;;2614765;52;21493;-65
2021/04/01 00:42:37;;;;;;;3.45;1.30;;;14.00;42.60;;;;;;2346533;53;20957;-64
2021/04/01 00:45:11;;;;;;;5.22;1.50;;;14.00;42.60;;;;;;2364063;53;20930;-63
2021/04/01 00:47:39;;;;;;;2.95;1.25;;;14.00;42.80;;;;;;2597431;52;21026;-63
2021/04/01 00:50:09;;;;;;;4.37;1.40;;;13.90;42.70;;;;;;2361369;53;20920;-63
2021/04/01 00:52:36;;;;;;;3.55;1.40;;;13.90;42.70;;;;;;2364937;53;20916;-64
2021/04/01 00:55:03;;;;;;;4.35;1.40;;;13.90;42.80;;;;;;2615180;52;21482;-65
2021/04/01 00:57:30;;;;;;;3.28;1.15;;;13.90;42.90;;;;;;2364405;53;20921;-64
2021/04/01 00:59:58;;;;;;;3.17;1.10;;;13.90;43.00;;;;;;2615812;52;20997;-65
2021/04/01 01:02:24;;;;;;;2.85;1.12;;;13.90;43.00;;;;;;2348905;53;20886;-65
2021/04/01 01:04:51;;;;;;;2.83;1.35;;;13.80;42.90;;;;;;2364006;53;20929;-62
2021/04/01 01:07:20;;;;;;;3.33;1.35;;;13.80;42.90;;;;;;2615498;52;21420;-62
2021/04/01 01:09:46;;;;;;;2.60;1.30;;;13.80;43.50;;;;;;2348505;53;21050;-65
2021/04/01 01:12:13;;;;;;;2.75;1.10;;;13.80;43.10;;;;;;2363963;53;21239;-65
2021/04/01 01:14:39;;;;;;;2.60;1.10;;;13.80;43.10;;;;;;2599524;52;21045;-63
2021/04/01 01:17:05;;;;;;;3.08;1.10;;;13.70;43.00;;;;;;2602104;52;20954;-64
2021/04/01 01:19:39;;;;;;;4.20;1.15;;;13.70;43.10;;;;;;2612245;52;21534;-64
2021/04/01 01:22:08;;;;;;;3.80;1.35;;;13.70;43.40;;;;;;2611812;52;20909;-63
2021/04/01 01:24:35;;;;;;;3.47;1.40;;;13.70;43.30;;;;;;2585981;52;21469;-63
2021/04/01 01:27:03;;;;;;;4.30;1.60;;;13.70;43.40;;;;;;2364442;53;20917;-63
2021/04/01 01:29:30;;;;;;;3.25;1.40;;;13.60;43.50;;;;;;2588999;52;21013;-63
2021/04/01 01:31:56;;;;;;;3.35;1.40;;;13.60;43.50;;;;;;2347362;53;20982;-64
2021/04/01 01:34:23;;;;;;;3.20;1.37;;;13.60;43.60;;;;;;2610982;52;22429;-63
2021/04/01 01:36:50;;;;;;;3.03;1.50;;;13.60;43.60;;;;;;2360561;53;20935;-65
2021/04/01 01:39:16;;;;;;;3.42;1.67;;;13.50;43.50;;;;;;2361659;53;21358;-63
2021/04/01 01:41:42;;;;;;;4.00;1.52;;;13.50;43.60;;;;;;2361429;53;21031;-64
2021/04/01 01:44:09;;;;;;;5.95;1.70;;;13.50;43.70;;;;;;2356269;53;20978;-63
2021/04/01 01:46:35;;;;;;;3.12;1.30;;;13.50;43.80;;;;;;2353397;53;21034;-63
2021/04/01 01:49:02;;;;;;;3.45;1.40;;;13.50;43.90;;;;;;2356476;53;21409;-63
2021/04/01 01:51:29;;;;;;;3.65;1.17;;;13.30;43.70;;;;;;2358989;53;20913;-64
2021/04/01 01:53:56;;;;;;;5.18;1.33;;;13.40;43.80;;;;;;2364393;53;22292;-65
2021/04/01 01:56:23;;;;;;;4.53;1.50;;;13.40;43.80;;;;;;2364322;53;20926;-65
2021/04/01 01:58:51;;;;;;;2.53;1.10;;;13.40;43.80;;;;;;2616044;52;20998;-63
2021/04/01 02:01:20;;;;;;;2.45;1.02;;;13.40;43.80;;;;;;2362789;53;20909;-64
2021/04/01 02:03:46;;;;;;;3.37;1.08;;;13.30;43.70;;;;;;2363683;53;21033;-63
2021/04/01 02:06:17;;;;;;;2.70;1.23;;;13.30;43.70;;;;;;2356935;53;21057;-65
2021/04/01 02:08:44;;;;;;;4.50;1.15;;;13.30;43.80;;;;;;2353831;53;21549;-65
2021/04/01 02:11:10;;;;;;;2.42;1.10;;;13.20;43.60;;;;;;2351176;53;20946;-64
2021/04/01 02:13:37;;;;;;;3.67;1.12;;;13.20;43.70;;;;;;2594467;52;20962;-65
2021/04/01 02:16:04;;;;;;;7.65;1.50;;;13.20;43.70;;;;;;2599421;52;21037;-63
2021/04/01 02:18:30;;;;;;;3.08;1.17;;;13.10;43.80;;;;;;2602730;52;20997;-64
2021/04/01 02:20:59;;;;;;;2.30;1.05;;;13.10;43.80;;;;;;2360992;53;21856;-64
2021/04/01 02:23:30;;;;;;;3.20;1.40;;;13.00;43.80;;;;;;2598581;52;21518;-62
2021/04/01 02:25:56;;;;;;;2.85;1.12;;;13.00;44.00;;;;;;2344366;53;20997;-62
2021/04/01 02:28:24;;;;;;;5.20;1.45;;;13.00;43.90;;;;;;2363810;53;20926;-65
2021/04/01 02:30:52;;;;;;;4.22;1.10;;;12.90;43.90;;;;;;2367145;53;21396;-66
2021/04/01 02:33:19;;;;;;;2.60;1.08;;;12.90;44.00;;;;;;2346856;53;21216;-63
2021/04/01 02:35:45;;;;;;;3.65;1.05;;;12.90;44.10;;;;;;2363791;53;20964;-66
2021/04/01 02:38:12;;;;;;;3.60;1.55;;;12.80;44.10;;;;;;2364092;53;20910;-64
2021/04/01 02:40:38;;;;;;;4.65;2.10;;;12.80;44.20;;;;;;2364519;53;21017;-64
2021/04/01 02:43:05;;;;;;;4.07;2.10;;;12.80;44.80;;;;;;2364408;53;21415;-63
2021/04/01 02:45:32;;;;;;;5.55;2.60;;;12.80;44.40;;;;;;2359852;53;21033;-64
2021/04/01 02:47:58;;;;;;;4.15;1.95;;;12.80;44.50;;;;;;2590320;52;20932;-64
2021/04/01 02:50:25;;;;;;;4.43;1.83;;;12.80;44.50;;;;;;2616067;52;21396;-64
2021/04/01 02:52:51;;;;;;;2.72;1.30;;;12.70;44.50;;;;;;2615227;52;20925;-64
2021/04/01 02:55:18;;;;;;;3.20;1.50;;;12.70;44.60;;;;;;2602961;52;20981;-63
2021/04/01 02:57:44;;;;;;;3.15;1.35;;;12.70;44.90;;;;;;2355495;53;20917;-62
2021/04/01 03:00:13;;;;;;;3.10;1.17;;;12.70;45.00;;;;;;2364962;53;20921;-63
2021/04/01 03:02:44;;;;;;;2.95;1.20;;;12.70;45.10;;;;;;2610919;52;21412;-65
2021/04/01 03:05:11;;;;;;;3.33;1.35;;;12.70;45.10;;;;;;2571398;52;20922;-63
2021/04/01 03:07:39;;;;;;;4.57;1.50;;;12.70;45.10;;;;;;2616153;52;20977;-64
2021/04/01 03:10:07;;;;;;;5.03;1.48;;;12.70;45.10;;;;;;2615958;52;20949;-63
2021/04/01 03:12:33;;;;;;;3.10;1.15;;;12.70;45.10;;;;;;2355440;53;21902;-63
2021/04/01 03:15:00;;;;;;;3.15;1.27;;;12.70;45.10;;;;;;2358555;53;21018;-62
2021/04/01 03:17:27;;;;;;;3.20;1.58;;;12.70;45.10;;;;;;2614350;52;20945;-63
2021/04/01 03:19:53;;;;;;;5.12;1.62;;;12.70;45.10;;;;;;2349727;53;21487;-64
2021/04/01 03:22:19;;;;;;;4.50;1.50;;;12.70;45.20;;;;;;2363854;53;20926;-65
2021/04/01 03:24:45;;;;;;;3.10;1.50;;;12.70;45.20;;;;;;2615739;52;21419;-62
2021/04/01 03:27:12;;;;;;;4.35;1.45;;;12.70;45.20;;;;;;2359365;53;20946;-65
2021/04/01 03:29:38;;;;;;;5.90;1.65;;;12.60;45.10;;;;;;2603634;52;20913;-64
2021/04/01 03:32:07;;;;;;;3.20;1.60;;;12.60;45.30;;;;;;2355477;53;20966;-62
2021/04/01 03:34:34;;;;;;;3.55;1.77;;;12.60;45.30;;;;;;2608505;52;20938;-63
2021/04/01 03:37:00;;;;;;;4.20;1.27;;;12.60;45.30;;;;;;2364351;53;20965;-65
2021/04/01 03:39:26;;;;;;;2.72;1.40;;;12.60;45.30;;;;;;2364635;53;21001;-65
2021/04/01 03:41:52;;;;;;;2.67;1.20;;;12.50;45.30;;;;;;2364128;53;20929;-65
2021/04/01 03:44:19;;;;;;;3.22;1.50;;;12.50;45.30;;;;;;2363052;53;20930;-65
2021/04/01 03:46:47;;;;;;;3.08;1.60;;;12.50;45.30;;;;;;2347773;53;21543;-64
2021/04/01 03:49:13;;;;;;;4.90;1.52;;;12.50;45.40;;;;;;2315767;54;20959;-64
2021/04/01 03:51:40;;;;;;;3.05;1.27;;;12.50;45.40;;;;;;2323459;54;20994;-63
2021/04/01 03:54:07;;;;;;;3.95;1.55;;;12.40;45.30;;;;;;2554514;53;21427;-65
2021/04/01 03:56:34;;;;;;;3.37;1.42;;;12.40;45.30;;;;;;2333727;54;21512;-64
2021/04/01 03:59:04;;;;;;;6.03;1.40;;;12.40;45.40;;;;;;2564970;52;21270;-63
2021/04/01 04:06:10;;;;;;;2.40;1.10;;;12.30;45.50;;;;;;2599321;52;21013;-63
2021/04/01 04:08:50;;;;;;;3.75;1.30;;;12.30;45.40;;;;;;2354184;53;21522;-63
2021/04/01 04:11:30;;;;;;;2.58;1.30;;;12.30;45.40;;;;;;2357423;53;21477;-63
2021/04/01 04:14:09;;;;;;;3.47;1.40;;;12.30;45.50;;;;;;2354465;53;21084;-63
2021/04/01 04:17:04;;;;;;;3.33;1.33;;;12.20;45.50;;;;;;2341126;53;21570;-63
2021/04/01 04:19:31;;;;;;;3.50;1.30;;;12.20;45.50;;;;;;2346234;53;21681;-65
2021/04/01 04:21:58;;;;;;;2.70;1.40;;;12.20;45.60;;;;;;2345410;53;20917;-64
2021/04/01 04:24:25;;;;;;;3.42;1.30;;;12.10;45.60;;;;;;2351922;53;21045;-63
2021/04/01 04:26:51;;;;;;;3.10;1.40;;;12.00;45.50;;;;;;2349530;53;21465;-63
2021/04/01 04:29:18;;;;;;;2.95;1.37;;;12.10;45.70;;;;;;2343150;53;21512;-65
2021/04/01 04:31:46;;;;;;;3.47;1.55;;;12.10;45.80;;;;;;2557108;53;21116;-63
2021/04/01 04:34:13;;;;;;;3.15;1.42;;;12.10;45.80;;;;;;2340764;53;21017;-64
2021/04/01 04:36:39;;;;;;;4.10;1.40;;;12.00;45.80;;;;;;2339394;53;20964;-63
2021/04/01 04:39:05;;;;;;;5.82;1.42;;;12.00;45.90;;;;;;2341404;53;20995;-64
2021/04/01 04:41:32;;;;;;;3.25;1.60;;;11.90;45.80;;;;;;2341837;53;21273;-64
2021/04/01 04:43:58;;;;;;;3.05;1.45;;;11.90;46.00;;;;;;2343223;53;20940;-66
2021/04/01 04:46:24;;;;;;;3.28;1.50;;;11.90;46.10;;;;;;2338232;53;21283;-64
2021/04/01 04:48:51;;;;;;;2.90;1.40;;;11.90;46.10;;;;;;2342183;53;20994;-64
2021/04/01 04:51:17;;;;;;;3.80;1.90;;;11.90;46.30;;;;;;2338513;53;21072;-64
2021/04/01 04:53:43;;;;;;;5.10;1.45;;;11.90;46.20;;;;;;2338457;53;21828;-64
2021/04/01 04:56:18;;;;;;;3.85;2.05;;;11.90;46.30;;;;;;2584159;53;20973;-64
2021/04/01 04:58:54;;;;;;;4.82;1.98;;;11.80;46.20;;;;;;2338183;53;20929;-65
2021/04/01 05:04:40;;;;;;;4.85;1.48;;;11.80;46.30;;;;;;2556747;53;21025;-64
2021/04/01 05:07:06;;;;;;;3.58;1.40;;;11.80;46.30;;;;;;2338517;53;21268;-64
2021/04/01 05:09:33;;;;;;;3.85;1.73;;;11.80;46.00;;;;;;2342455;53;21511;-65
2021/04/01 05:11:59;;;;;;;2.75;1.55;;;11.70;46.10;;;;;;2338193;53;21129;-63
2021/04/01 05:14:26;;;;;;;4.30;1.80;;;11.70;46.20;;;;;;2341519;53;20936;-63
2021/04/01 05:16:52;;;;;;;7.45;1.80;;;11.70;46.40;;;;;;2341329;53;21052;-64
2021/04/01 05:19:19;;;;;;;4.85;2.20;;;11.70;46.60;;;;;;2341162;53;20949;-63
2021/04/01 05:21:57;;;;;;;4.50;2.10;;;11.60;46.60;;;;;;2340836;53;21382;-64
2021/04/01 05:24:26;;;;;;;3.80;2.12;;;11.70;46.90;;;;;;2320119;54;21586;-65
2021/04/01 05:27:17;;;;;;;5.43;2.17;;;11.60;46.90;;;;;;2320990;53;21656;-64
2021/04/01 05:29:59;;;;;;;3.35;1.80;;;11.60;47.00;;;;;;2587627;53;21447;-66
2021/04/01 05:32:30;;;;;;;3.80;1.62;;;11.60;46.90;;;;;;2588569;53;21470;-64
2021/04/01 05:34:56;;;;;;;5.78;1.98;;;11.60;47.00;;;;;;2600517;52;20954;-63
2021/04/01 05:37:26;;;;;;;3.92;1.80;;;11.60;47.00;;;;;;2358343;53;20971;-62
2021/04/01 05:39:54;;;;;;;3.62;1.70;;;11.70;47.20;;;;;;2324398;54;21035;-62
2021/04/01 05:42:22;;;;;;;4.20;2.40;;;11.70;47.90;;;;;;2608839;52;21160;-65
2021/04/01 05:45:05;;;;;;;4.12;1.90;;;11.70;47.30;;;;;;2591544;52;21422;-62
2021/04/01 05:47:37;;;;;;;4.20;1.70;;;11.70;47.30;;;;;;2580364;53;21888;-63
2021/04/01 05:50:16;;;;;;;3.95;1.85;;;11.70;47.30;;;;;;2334831;53;21491;-64
2021/04/01 05:54:29;;;;;;;4.25;1.85;;;11.70;47.40;;;;;;2335087;53;21566;-63
2021/04/01 05:57:35;;;;;;;4.68;2.33;;;11.70;47.30;;;;;;2555837;53;21031;-65
2021/04/01 06:00:50;;;;;;;5.25;2.12;;;11.80;47.50;;;;;;2335028;54;21458;-62
2021/04/01 06:09:24;;;;;;;3.58;1.83;;;11.80;47.50;;;;;;2350851;53;20970;-63
2021/04/01 06:11:54;;;;;;;5.32;1.80;;;11.90;47.60;;;;;;2601845;52;21056;-63
2021/04/01 06:15:26;;;;;;;3.70;1.98;;;11.90;47.60;;;;;;2359105;53;21017;-63
2021/04/01 06:17:52;;;;;;;5.07;2.10;;;11.90;47.80;;;;;;2358770;53;20902;-65
2021/04/01 06:20:18;;;;;;;4.45;2.25;;;12.00;47.80;;;;;;2608851;52;20961;-63
2021/04/01 06:22:45;;;;;;;6.75;2.35;;;12.00;48.00;;;;;;2358495;53;21008;-62
2021/04/01 06:25:15;;;;;;;5.28;2.45;;;12.10;48.20;;;;;;2352362;53;21001;-64
2021/04/01 06:27:54;;;;;;;6.32;2.35;;;12.10;48.30;;;;;;2356732;53;20905;-63
2021/04/01 06:30:25;;;;;;;5.70;2.80;;;12.10;48.30;;;;;;2350930;53;20958;-63
2021/04/01 06:33:05;;;;;;;6.62;2.72;;;12.20;48.40;;;;;;2356174;53;20922;-63
2021/04/01 06:35:33;;;;;;;6.70;3.25;;;12.30;48.80;;;;;;2342975;53;21090;-63
2021/04/01 06:38:20;;;;;;;6.35;3.17;;;12.40;48.80;;;;;;2360750;53;20982;-65
2021/04/01 06:41:00;;;;;;;6.85;2.60;;;12.40;49.00;;;;;;2615273;52;21711;-65
2021/04/01 06:44:03;;;;;;;6.03;2.90;;;12.60;50.10;;;;;;2359656;53;21098;-66
2021/04/01 06:46:31;;;;;;;8.23;2.97;;;12.90;52.30;;;;;;2607202;52;20921;-62
2021/04/01 06:49:30;;;;;;;5.80;3.05;;;13.50;53.70;;;;;;2364350;53;20910;-64
2021/04/01 06:54:45;;;;;;;4.00;2.30;;;14.70;55.60;;;;;;2348674;53;20972;-63
2021/04/01 06:57:37;;;;;;;4.87;2.50;;;15.40;55.00;;;;;;2334933;53;21078;-63
2021/04/01 07:00:20;;;;;;;5.50;2.75;;;16.00;53.60;;;;;;2328655;53;20988;-66
2021/04/01 07:02:54;;;;;;;6.28;2.45;;;16.30;52.30;;;;;;2331320;53;21402;-64
2021/04/01 07:05:26;;;;;;;4.75;2.83;;;16.60;51.00;;;;;;2333244;53;21365;-64
2021/04/01 07:07:59;;;;;;;5.22;2.65;;;16.80;50.30;;;;;;2329614;54;21497;-65
2021/04/01 07:10:44;;;;;;;6.57;2.83;;;16.90;49.60;;;;;;2342073;55;21327;-65
2021/04/01 07:13:15;;;;;;;7.03;2.72;;;17.00;49.10;;;;;;2343600;55;21064;-64
2021/04/01 07:16:03;;;;;;;7.97;3.00;;;16.90;48.70;;;;;;2343054;55;20944;-65
2021/04/01 07:18:37;;;;;;;7.65;2.97;;;17.00;48.40;;;;;;2344606;53;20927;-65
2021/04/01 07:21:31;;;;;;;10.10;3.00;;;17.00;48.20;;;;;;2352913;53;20931;-64
2021/04/01 07:46:37;;;;;;;5.95;2.05;;;19.50;49.40;;;;;;2604670;52;21465;-63
2021/04/01 07:49:06;;;;;;;4.12;1.87;;;19.60;48.60;;;;;;2344061;53;21013;-64
2021/04/01 08:09:24;;;;;;;2.92;1.27;;;20.20;47.30;;;;;;2363179;53;20996;-65
2021/04/01 08:11:53;;;;;;;5.10;1.77;;;20.40;47.50;;;;;;2617711;52;20957;-64
2021/04/01 08:14:33;;;;;;;3.42;1.60;;;20.50;47.80;;;;;;2366142;53;20937;-64
2021/04/01 08:17:07;;;;;;;5.50;2.20;;;20.80;47.60;;;;;;2339696;53;20955;-64
2021/04/01 08:19:35;;;;;;;7.93;2.47;;;21.00;47.80;;;;;;2360499;53;21005;-63
2021/04/01 08:22:17;;;;;;;4.60;2.00;;;21.30;47.90;;;;;;2604589;52;20962;-62
2021/04/01 08:25:16;;;;;;;3.78;1.70;;;21.60;48.40;;;;;;2363232;53;20909;-63
2021/04/01 08:36:01;;;;;;;3.10;1.35;;;23.40;49.90;;;;;;2592916;52;20933;-64
2021/04/01 08:39:01;;;;;;;3.15;1.45;;;24.00;49.80;;;;;;2316793;55;21031;-63
2021/04/01 08:47:02;;;;;;;3.42;1.52;;;24.40;49.30;;;;;;2339494;54;21033;-63
2021/04/01 08:50:11;;;;;;;3.70;1.73;;;25.20;47.80;;;;;;2560181;53;20940;-64
2021/04/01 08:53:24;;;;;;;7.18;2.40;;;26.10;46.60;;;;;;2588124;53;21004;-63
2021/04/01 08:56:38;;;;;;;5.30;2.22;;;26.60;45.80;;;;;;2609871;52;20973;-63
2021/04/01 09:00:41;;;;;;;6.70;2.50;;;27.10;44.40;;;;;;2357002;53;21061;-63
2021/04/01 09:03:08;;;;;;;3.85;1.80;;;27.60;43.40;;;;;;2366329;53;20946;-63
2021/04/01 09:05:34;;;;;;;6.93;2.20;;;27.90;43.40;;;;;;2366106;53;21430;-63
2021/04/01 09:08:02;;;;;;;3.03;1.62;;;28.10;41.60;;;;;;2349892;54;20965;-63
2021/04/01 09:10:31;;;;;;;4.62;1.92;;;28.30;40.90;;;;;;2366017;53;20897;-63
2021/04/01 09:13:17;;;;;;;3.62;1.70;;;28.50;40.90;;;;;;2366225;53;20933;-63
2021/04/01 09:16:12;;;;;;;5.32;1.98;;;28.70;40.30;;;;;;2365266;54;20885;-63
2021/04/01 09:18:43;;;;;;;5.30;2.00;;;29.00;39.40;;;;;;2618284;52;20949;-65
2021/04/01 09:21:10;;;;;;;4.82;2.20;;;29.30;40.00;;;;;;2617426;52;21000;-66
2021/04/01 09:23:40;;;;;;;6.03;2.20;;;29.50;38.80;;;;;;2366657;53;20933;-63
2021/04/01 09:26:08;;;;;;;4.47;1.83;;;29.70;38.10;;;;;;2617558;52;20930;-63
2021/04/01 09:28:37;;;;;;;4.90;2.00;;;29.80;37.40;;;;;;2356864;53;20947;-63
2021/04/01 09:31:05;;;;;;;4.22;1.92;;;29.90;36.80;;;;;;2601473;52;20985;-63
2021/04/01 09:33:32;;;;;;;4.40;1.80;;;30.10;37.10;;;;;;2356092;53;20989;-63
2021/04/01 09:36:20;;;;;;;4.22;1.60;;;30.20;36.80;;;;;;2365615;53;20945;-63
2021/04/01 09:38:53;;;;;;;3.80;1.65;;;30.40;35.40;;;;;;2333477;53;1763509;-63
2021/04/01 09:41:27;;;;;;;4.22;1.50;;;30.60;35.40;;;;;;2602603;52;20909;-63
2021/04/01 09:43:53;;;;;;;4.60;1.40;;;30.80;35.30;;;;;;2367283;53;21008;-63
2021/04/01 09:46:22;;;;;;;3.22;1.70;;;30.90;35.70;;;;;;2597023;52;20953;-63
2021/04/01 09:49:22;;;;;;;5.90;1.83;;;31.00;34.20;;;;;;2350164;53;21003;-63
2021/04/01 09:52:04;;;;;;;6.03;1.73;;;31.20;33.00;;;;;;2617356;52;20977;-63
2021/04/01 09:54:30;;;;;;;;;;;31.30;33.00;;;;;;2364535;53;21053;-63
2021/04/01 09:56:57;;;;;;;2.80;1.20;;;31.30;33.70;;;;;;2346400;53;20175;-64
2021/04/01 10:04:42;;;;;;;4.12;1.20;;;31.50;33.30;;;;;;2367506;53;21005;-63
2021/04/01 10:07:14;;;;;;;3.05;1.20;;;31.80;32.80;;;;;;2369341;53;20953;-64
2021/04/01 10:09:50;;;;;;;3.70;1.27;;;31.90;32.90;;;;;;2593978;52;20961;-63
2021/04/01 10:12:19;;;;;;;4.65;1.30;;;32.00;32.00;;;;;;2364703;53;21911;-61
2021/04/01 10:14:53;;;;;;;3.10;1.27;;;32.20;32.00;;;;;;2347108;53;20904;-63
2021/04/01 10:17:21;;;;;;;2.60;1.08;;;32.30;31.50;;;;;;2366110;53;21487;-65
2021/04/01 10:19:57;;;;;;;2.90;1.20;;;32.30;31.50;;;;;;2366163;53;20897;-62
2021/04/01 10:22:32;;;;;;;3.62;1.20;;;32.40;30.10;;;;;;2617256;52;20933;-64
2021/04/01 10:25:26;;;;;;;3.00;1.10;;;32.40;30.00;;;;;;2365633;53;21347;-64
2021/04/01 10:28:03;;;;;;;2.75;1.00;;;32.40;29.80;;;;;;2617872;52;20890;-63
2021/04/01 10:30:31;;;;;;;3.42;1.27;;;32.40;30.00;;;;;;2365519;53;20977;-64
2021/04/01 10:33:31;;;;;;;3.60;1.35;;;32.30;29.60;;;;;;2366484;53;20973;-63
2021/04/01 10:35:58;;;;;;;3.35;1.10;;;32.20;28.90;;;;;;2367051;53;21489;-62
2021/04/01 10:38:27;;;;;;;4.10;1.40;;;32.10;29.50;;;;;;2368388;53;20901;-63
2021/04/01 10:40:57;;;;;;;3.90;1.42;;;32.00;29.40;;;;;;2367413;53;21024;-64
2021/04/01 10:43:23;;;;;;;2.75;1.17;;;32.00;29.80;;;;;;2367402;53;20928;-63
2021/04/01 10:45:50;;;;;;;3.92;1.37;;;31.90;30.00;;;;;;2366992;53;21480;-63
2021/04/01 10:48:37;;;;;;;2.62;1.20;;;31.90;29.90;;;;;;2613568;52;21443;-62
2021/04/01 10:51:07;;;;;;;2.90;1.10;;;31.90;29.40;;;;;;2594360;52;20969;-63
2021/04/01 10:53:39;;;;;;;3.60;1.33;;;31.80;29.80;;;;;;2366427;53;21004;-63
2021/04/01 10:56:07;;;;;;;3.78;1.50;;;31.80;29.30;;;;;;2364051;53;21006;-63
2021/04/01 10:58:33;;;;;;;3.28;1.17;;;31.80;29.40;;;;;;2347778;53;20925;-63
2021/04/01 11:01:00;;;;;;;3.65;1.23;;;31.80;29.40;;;;;;2357613;53;21817;-63
2021/04/01 11:03:51;;;;;;;3.20;1.42;;;31.90;29.50;;;;;;2359107;53;20984;-63
2021/04/01 11:06:20;;;;;;;3.30;1.33;;;31.90;29.10;;;;;;2367082;53;21470;-63
2021/04/01 11:08:46;;;;;;;3.03;1.70;;;32.00;29.60;;;;;;2351581;53;20975;-62
2021/04/01 11:11:13;;;;;;;4.53;1.62;;;32.00;29.30;;;;;;2595316;52;21458;-63
2021/04/01 11:13:46;;;;;;;4.45;1.60;;;32.10;29.00;;;;;;2614181;52;21468;-63
2021/04/01 11:16:17;;;;;;;3.92;1.55;;;32.20;28.30;;;;;;2591903;52;21004;-63
2021/04/01 11:18:45;;;;;;;3.67;1.48;;;32.20;28.80;;;;;;2603156;52;20935;-63
2021/04/01 11:21:13;;;;;;;4.25;1.83;;;32.20;28.40;;;;;;2360528;53;20905;-62
2021/04/01 11:23:39;;;;;;;4.37;1.30;;;32.20;28.40;;;;;;2595228;52;21058;-65
2021/04/01 11:26:06;;;;;;;3.05;1.30;;;32.20;28.50;;;;;;2364117;53;20982;-63
2021/04/01 11:28:43;;;;;;;3.85;1.20;;;32.20;28.50;;;;;;2356515;53;20958;-63
2021/04/01 11:31:10;;;;;;;4.05;1.33;;;32.30;28.80;;;;;;2594162;52;21047;-63
2021/04/01 11:33:37;;;;;;;2.53;1.10;;;32.40;29.00;;;;;;2367079;53;21371;-63
2021/04/01 11:36:16;;;;;;;3.60;1.45;;;32.60;28.90;;;;;;2598752;52;21452;-63
2021/04/01 11:38:46;;;;;;;3.90;1.30;;;32.70;28.50;;;;;;2366134;53;20996;-63
2021/04/01 11:41:14;;;;;;;3.67;1.27;;;32.90;28.60;;;;;;2618547;52;21676;-63
2021/04/01 11:43:40;;;;;;;2.42;1.10;;;33.00;28.40;;;;;;2340584;53;20997;-64
2021/04/01 11:46:28;;;;;;;4.60;1.30;;;33.20;28.00;;;;;;2367612;53;20937;-62
2021/04/01 11:48:56;;;;;;;2.75;1.20;;;33.40;27.50;;;;;;2367399;53;20913;-61
2021/04/01 11:51:27;;;;;;;2.85;1.00;;;33.40;27.60;;;;;;2356081;53;21002;-61
2021/04/01 11:53:54;;;;;;;2.17;1.00;;;33.50;27.80;;;;;;2363205;53;20945;-60
2021/04/01 11:56:23;;;;;;;3.30;1.30;;;33.70;27.70;;;;;;2618920;52;20914;-63
2021/04/01 11:58:49;;;;;;;3.47;1.00;;;33.80;27.50;;;;;;2613612;52;21027;-61
2021/04/01 12:01:39;;;;;;;;;;;;;;;;;;;;;
2021/04/01 12:04:08;;;;;;;2.70;1.23;;;34.00;27.00;;;;;;2365223;53;20966;-61
2021/04/01 12:06:36;;;;;;;3.72;1.35;;;34.10;26.80;;;;;;2618849;52;21386;-61
2021/04/01 12:09:02;;;;;;;2.60;1.17;;;34.10;26.80;;;;;;2364398;53;21041;-62
2021/04/01 12:11:39;;;;;;;3.28;1.20;;;34.20;26.80;;;;;;2352560;53;21103;-61
2021/04/01 12:14:10;;;;;;;3.47;1.20;;;34.20;26.10;;;;;;2365612;53;20958;-61
2021/04/01 12:16:37;;;;;;;2.20;0.95;;;34.20;26.50;;;;;;2366550;53;20929;-61
2021/04/01 12:19:04;;;;;;;3.20;1.20;;;34.30;26.80;;;;;;2364732;53;21019;-61
2021/04/01 12:21:31;;;;;;;2.90;1.40;;;34.40;26.60;;;;;;2603482;52;20949;-61
2021/04/01 12:24:02;;;;;;;4.15;1.20;;;34.40;26.70;;;;;;2365689;53;21760;-62
2021/04/01 12:26:30;;;;;;;2.95;1.02;;;34.40;26.60;;;;;;2602899;52;21473;-62
2021/04/01 12:28:58;;;;;;;3.05;0.98;;;34.40;26.40;;;;;;2367037;53;21041;-62
2021/04/01 12:31:40;;;;;;;4.45;1.25;;;34.40;26.30;;;;;;2619120;52;21656;-63
2021/04/01 12:34:10;;;;;;;3.28;1.10;;;34.50;26.00;;;;;;2368635;53;20985;-62
2021/04/01 12:36:40;;;;;;;2.72;1.05;;;34.40;26.00;;;;;;2352277;53;20909;-64
2021/04/01 12:39:10;;;;;;;3.22;1.27;;;34.40;25.90;;;;;;2361073;53;20954;-62
2021/04/01 12:41:40;;;;;;;3.72;1.40;;;34.40;25.70;;;;;;2368085;53;20901;-62
2021/04/01 12:44:07;;;;;;;2.83;1.20;;;34.40;25.60;;;;;;2367357;53;20973;-62
2021/04/01 12:46:37;;;;;;;2.95;1.15;;;34.40;25.60;;;;;;2600810;52;20950;-61
2021/04/01 12:49:05;;;;;;;3.72;1.00;;;34.40;25.20;;;;;;2364299;53;21040;-61
2021/04/01 12:52:54;;;;;;;3.65;1.35;;;34.30;25.40;;;;;;2619295;52;20905;-61
2021/04/01 12:55:56;;;;;;;4.18;1.42;;;34.20;25.50;;;;;;2367358;53;20921;-61
2021/04/01 12:58:26;;;;;;;1.85;0.80;;;34.10;25.00;;;;;;2351648;54;21174;-62
2021/04/01 13:01:03;;;;;;;2.50;1.00;;;34.00;25.20;;;;;;2367341;53;20929;-64
2021/04/01 13:03:29;;;;;;;2.78;1.08;;;33.90;25.20;;;;;;2619027;52;20974;-63
2021/04/01 13:06:02;;;;;;;3.50;1.20;;;33.80;25.00;;;;;;2366478;53;21809;-62
2021/04/01 13:11:14;;;;;;;2.37;0.80;;;33.70;24.90;;;;;;2603823;52;20957;-64
2021/04/01 13:13:41;;;;;;;3.35;1.20;;;33.60;24.70;;;;;;2593337;52;20984;-63
2021/04/01 13:16:08;;;;;;;3.35;1.05;;;33.50;24.50;;;;;;2368213;53;20906;-61
2021/04/01 13:18:35;;;;;;;3.12;1.05;;;33.40;24.50;;;;;;2369074;53;20929;-65
2021/04/01 13:21:02;;;;;;;2.80;1.08;;;33.40;24.20;;;;;;2597064;52;20889;-63
2021/04/01 13:23:41;;;;;;;2.87;1.12;;;33.20;24.00;;;;;;2591377;53;20995;-63
2021/04/01 13:26:07;;;;;;;3.33;1.08;;;33.10;23.90;;;;;;2616123;52;21379;-63
2021/04/01 13:28:33;;;;;;;2.67;0.90;;;32.90;23.90;;;;;;2367281;53;20905;-64
2021/04/01 13:31:03;;;;;;;3.12;1.10;;;32.80;23.80;;;;;;2367614;53;20921;-64
2021/04/01 13:38:02;;;;;;;5.70;1.02;;;32.50;24.10;;;;;;2367460;53;21752;-63
2021/04/01 13:40:29;;;;;;;2.37;1.00;;;32.30;24.20;;;;;;2367739;53;20905;-63
2021/04/01 13:42:58;;;;;;;2.83;1.20;;;32.20;24.20;;;;;;2366934;53;20973;-62
2021/04/01 13:45:25;;;;;;;2.85;1.00;;;32.10;24.30;;;;;;2351290;54;20886;-62
2021/04/01 13:48:04;;;;;;;3.35;1.12;;;32.10;24.40;;;;;;2367641;53;20938;-63
2021/04/01 13:50:37;;;;;;;2.60;1.10;;;32.00;24.20;;;;;;2619622;52;20960;-62
2021/04/01 13:53:55;;;;;;;3.10;1.05;;;32.00;24.10;;;;;;2618388;52;21061;-63
2021/04/01 13:56:27;;;;;;;3.45;1.12;;;31.80;24.00;;;;;;2353616;53;20935;-62
2021/04/01 14:10:20;;;;;;;2.92;1.02;;;31.50;24.50;;;;;;2598265;52;21001;-64
2021/04/01 14:12:50;;;;;;;5.78;1.33;;;31.50;24.50;;;;;;2602406;52;21687;-64
2021/04/01 14:15:16;;;;;;;3.03;1.30;;;31.50;24.40;;;;;;2590541;53;21427;-63
2021/04/01 14:17:43;;;;;;;4.57;1.42;;;31.40;24.30;;;;;;2620924;52;20973;-63
2021/04/01 14:20:11;;;;;;;4.03;1.40;;;31.30;24.30;;;;;;2364346;53;21054;-63
2021/04/01 14:22:42;;;;;;;3.03;1.27;;;31.20;24.30;;;;;;2596138;52;21463;-63
2021/04/01 14:25:43;;;;;;;3.80;1.35;;;31.20;24.30;;;;;;2353625;53;20866;-63
2021/04/01 14:28:10;;;;;;;3.08;1.20;;;31.10;24.30;;;;;;2607421;52;21030;-62
2021/04/01 14:30:39;;;;;;;3.08;1.30;;;31.00;24.30;;;;;;2352768;53;20926;-63
2021/04/01 14:33:08;;;;;;;2.70;1.12;;;31.00;24.20;;;;;;2619100;52;20889;-61
2021/04/01 14:35:35;;;;;;;4.53;1.10;;;30.90;24.20;;;;;;2351085;54;20914;-64
2021/04/01 14:38:04;;;;;;;3.20;1.20;;;30.90;24.40;;;;;;2367772;53;21425;-63
2021/04/01 14:40:35;;;;;;;3.60;1.05;;;30.90;24.30;;;;;;2367530;53;21037;-66
2021/04/01 14:43:10;;;;;;;3.28;1.02;;;30.80;24.40;;;;;;2367136;53;20992;-63
2021/04/01 14:45:37;;;;;;;3.20;1.17;;;30.80;24.40;;;;;;2332759;53;21018;-63
2021/04/01 14:48:06;;;;;;;4.22;1.20;;;30.70;24.30;;;;;;2344656;54;20918;-63
2021/04/01 14:50:33;;;;;;;3.08;1.20;;;30.70;24.50;;;;;;2345945;53;20968;-63